sensor_id;sensor_type;location;lat;lon;timestamp;P1;durP1;ratioP1;P2;durP2;ratioP2
30874;SDS011;17581;43.222;27.924;2022-11-12T00:01:12;29.77;;;19.90;;
30874;SDS011;17581;43.222;27.924;2022-11-12T00:03:37;29.17;;;20.25;;
30874;SDS011;17581;43.222;27.924;2022-11-12T00:06:02;22.67;;;17.55;;
30874;SDS011;17581;43.222;27.924;2022-11-12T00:08:28;29.55;;;19.88;;
30874;SDS011;17581;43.222;27.924;2022-11-12T00:10:53;38.55;;;20.45;;
30874;SDS011;17581;43.222;27.924;2022-11-12T00:13:19;29.23;;;19.13;;
30874;SDS011;17581;43.222;27.924;2022-11-12T00:15:44;27.42;;;19.35;;
30874;SDS011;17581;43.222;27.924;2022-11-12T00:18:11;32.00;;;19.25;;
30874;SDS011;17581;43.222;27.924;2022-11-12T00:20:36;28.35;;;19.05;;
30874;SDS011;17581;43.222;27.924;2022-11-12T00:23:02;32.65;;;20.23;;
30874;SDS011;17581;43.222;27.924;2022-11-12T00:25:28;29.55;;;18.88;;
30874;SDS011;17581;43.222;27.924;2022-11-12T00:27:59;35.65;;;20.08;;
30874;SDS011;17581;43.222;27.924;2022-11-12T00:30:25;31.40;;;19.73;;
30874;SDS011;17581;43.222;27.924;2022-11-12T00:32:50;31.30;;;20.00;;
30874;SDS011;17581;43.222;27.924;2022-11-12T00:35:16;32.15;;;20.88;;
30874;SDS011;17581;43.222;27.924;2022-11-12T00:37:41;30.50;;;19.83;;
30874;SDS011;17581;43.222;27.924;2022-11-12T00:40:07;28.77;;;19.40;;
30874;SDS011;17581;43.222;27.924;2022-11-12T00:42:33;25.98;;;18.58;;
30874;SDS011;17581;43.222;27.924;2022-11-12T00:44:58;31.67;;;19.63;;
30874;SDS011;17581;43.222;27.924;2022-11-12T00:47:24;29.83;;;18.90;;
30874;SDS011;17581;43.222;27.924;2022-11-12T00:49:52;27.25;;;18.80;;
30874;SDS011;17581;43.222;27.924;2022-11-12T00:52:17;27.17;;;18.05;;
30874;SDS011;17581;43.222;27.924;2022-11-12T00:54:42;29.58;;;18.45;;
30874;SDS011;17581;43.222;27.924;2022-11-12T00:57:08;28.70;;;18.60;;
30874;SDS011;17581;43.222;27.924;2022-11-12T00:59:34;27.77;;;18.30;;
30874;SDS011;17581;43.222;27.924;2022-11-12T01:01:59;30.58;;;19.83;;
30874;SDS011;17581;43.222;27.924;2022-11-12T01:04:24;32.47;;;21.25;;
30874;SDS011;17581;43.222;27.924;2022-11-12T01:06:50;35.35;;;20.73;;
30874;SDS011;17581;43.222;27.924;2022-11-12T01:09:15;31.73;;;21.13;;
30874;SDS011;17581;43.222;27.924;2022-11-12T01:11:41;30.90;;;20.38;;
30874;SDS011;17581;43.222;27.924;2022-11-12T01:14:07;29.75;;;19.73;;
30874;SDS011;17581;43.222;27.924;2022-11-12T01:16:34;30.88;;;19.60;;
30874;SDS011;17581;43.222;27.924;2022-11-12T01:19:02;32.03;;;20.95;;
30874;SDS011;17581;43.222;27.924;2022-11-12T01:21:30;31.88;;;19.55;;
30874;SDS011;17581;43.222;27.924;2022-11-12T01:23:57;32.80;;;20.40;;
30874;SDS011;17581;43.222;27.924;2022-11-12T01:26:25;34.50;;;20.23;;
30874;SDS011;17581;43.222;27.924;2022-11-12T01:28:52;30.75;;;20.15;;
30874;SDS011;17581;43.222;27.924;2022-11-12T01:31:19;41.03;;;23.55;;
30874;SDS011;17581;43.222;27.924;2022-11-12T01:33:53;35.00;;;20.55;;
30874;SDS011;17581;43.222;27.924;2022-11-12T01:36:24;33.92;;;19.50;;
30874;SDS011;17581;43.222;27.924;2022-11-12T01:38:51;36.35;;;19.75;;
30874;SDS011;17581;43.222;27.924;2022-11-12T01:41:19;30.48;;;20.20;;
30874;SDS011;17581;43.222;27.924;2022-11-12T01:43:47;24.65;;;16.70;;
30874;SDS011;17581;43.222;27.924;2022-11-12T01:46:16;28.23;;;17.45;;
30874;SDS011;17581;43.222;27.924;2022-11-12T01:48:47;30.50;;;18.67;;
30874;SDS011;17581;43.222;27.924;2022-11-12T01:51:16;31.02;;;19.10;;
30874;SDS011;17581;43.222;27.924;2022-11-12T01:53:45;30.25;;;17.83;;
30874;SDS011;17581;43.222;27.924;2022-11-12T01:56:15;28.25;;;18.08;;
30874;SDS011;17581;43.222;27.924;2022-11-12T01:58:42;26.98;;;17.42;;
30874;SDS011;17581;43.222;27.924;2022-11-12T02:01:10;27.08;;;17.70;;
30874;SDS011;17581;43.222;27.924;2022-11-12T02:03:35;26.73;;;17.67;;
30874;SDS011;17581;43.222;27.924;2022-11-12T02:06:05;30.98;;;18.33;;
30874;SDS011;17581;43.222;27.924;2022-11-12T02:08:34;27.70;;;17.75;;
30874;SDS011;17581;43.222;27.924;2022-11-12T02:11:15;29.42;;;17.80;;
30874;SDS011;17581;43.222;27.924;2022-11-12T02:13:42;31.52;;;17.48;;
30874;SDS011;17581;43.222;27.924;2022-11-12T02:16:22;31.80;;;17.85;;
30874;SDS011;17581;43.222;27.924;2022-11-12T02:21:20;30.33;;;18.73;;
30874;SDS011;17581;43.222;27.924;2022-11-12T02:23:46;30.15;;;19.88;;
30874;SDS011;17581;43.222;27.924;2022-11-12T02:26:11;26.38;;;17.90;;
30874;SDS011;17581;43.222;27.924;2022-11-12T02:28:37;37.25;;;19.25;;
30874;SDS011;17581;43.222;27.924;2022-11-12T02:31:02;28.55;;;19.58;;
30874;SDS011;17581;43.222;27.924;2022-11-12T02:33:28;28.27;;;17.50;;
30874;SDS011;17581;43.222;27.924;2022-11-12T02:35:53;28.75;;;18.45;;
30874;SDS011;17581;43.222;27.924;2022-11-12T02:38:19;34.83;;;18.92;;
30874;SDS011;17581;43.222;27.924;2022-11-12T02:40:44;31.73;;;19.58;;
30874;SDS011;17581;43.222;27.924;2022-11-12T02:43:09;29.60;;;20.02;;
30874;SDS011;17581;43.222;27.924;2022-11-12T02:45:35;34.63;;;21.42;;
30874;SDS011;17581;43.222;27.924;2022-11-12T02:48:00;33.65;;;21.08;;
30874;SDS011;17581;43.222;27.924;2022-11-12T02:50:26;33.45;;;20.17;;
30874;SDS011;17581;43.222;27.924;2022-11-12T02:52:51;33.33;;;21.92;;
30874;SDS011;17581;43.222;27.924;2022-11-12T02:55:16;43.30;;;23.15;;
30874;SDS011;17581;43.222;27.924;2022-11-12T02:57:42;43.13;;;24.98;;
30874;SDS011;17581;43.222;27.924;2022-11-12T03:00:08;41.67;;;22.20;;
30874;SDS011;17581;43.222;27.924;2022-11-12T03:02:35;31.23;;;21.30;;
30874;SDS011;17581;43.222;27.924;2022-11-12T03:05:09;38.65;;;23.00;;
30874;SDS011;17581;43.222;27.924;2022-11-12T03:07:35;36.72;;;22.80;;
30874;SDS011;17581;43.222;27.924;2022-11-12T03:10:01;33.45;;;21.73;;
30874;SDS011;17581;43.222;27.924;2022-11-12T03:12:29;35.88;;;20.42;;
30874;SDS011;17581;43.222;27.924;2022-11-12T03:14:55;35.97;;;21.73;;
30874;SDS011;17581;43.222;27.924;2022-11-12T03:17:20;33.72;;;21.05;;
30874;SDS011;17581;43.222;27.924;2022-11-12T03:19:46;29.50;;;19.23;;
30874;SDS011;17581;43.222;27.924;2022-11-12T03:22:11;28.02;;;19.73;;
30874;SDS011;17581;43.222;27.924;2022-11-12T03:24:36;27.63;;;18.00;;
30874;SDS011;17581;43.222;27.924;2022-11-12T03:27:02;29.02;;;17.73;;
30874;SDS011;17581;43.222;27.924;2022-11-12T03:29:27;29.55;;;17.85;;
30874;SDS011;17581;43.222;27.924;2022-11-12T03:31:53;30.08;;;17.73;;
30874;SDS011;17581;43.222;27.924;2022-11-12T03:34:18;24.27;;;16.75;;
30874;SDS011;17581;43.222;27.924;2022-11-12T03:36:44;30.02;;;18.05;;
30874;SDS011;17581;43.222;27.924;2022-11-12T03:39:09;30.08;;;17.92;;
30874;SDS011;17581;43.222;27.924;2022-11-12T03:41:34;27.88;;;18.95;;
30874;SDS011;17581;43.222;27.924;2022-11-12T03:44:00;30.33;;;17.92;;
30874;SDS011;17581;43.222;27.924;2022-11-12T03:46:25;26.95;;;17.75;;
30874;SDS011;17581;43.222;27.924;2022-11-12T03:48:50;27.10;;;17.55;;
30874;SDS011;17581;43.222;27.924;2022-11-12T03:51:17;25.92;;;17.10;;
30874;SDS011;17581;43.222;27.924;2022-11-12T03:53:45;29.88;;;19.45;;
30874;SDS011;17581;43.222;27.924;2022-11-12T03:56:10;33.65;;;17.85;;
30874;SDS011;17581;43.222;27.924;2022-11-12T03:58:36;23.58;;;15.45;;
30874;SDS011;17581;43.222;27.924;2022-11-12T04:01:01;24.90;;;16.90;;
30874;SDS011;17581;43.222;27.924;2022-11-12T04:03:26;26.23;;;17.13;;
30874;SDS011;17581;43.222;27.924;2022-11-12T04:05:52;26.13;;;16.73;;
30874;SDS011;17581;43.222;27.924;2022-11-12T04:08:36;27.58;;;16.77;;
30874;SDS011;17581;43.222;27.924;2022-11-12T04:11:03;22.77;;;15.98;;
30874;SDS011;17581;43.222;27.924;2022-11-12T04:13:37;25.58;;;17.35;;
30874;SDS011;17581;43.222;27.924;2022-11-12T04:16:05;30.98;;;18.77;;
30874;SDS011;17581;43.222;27.924;2022-11-12T04:18:55;31.98;;;18.85;;
30874;SDS011;17581;43.222;27.924;2022-11-12T04:21:44;26.65;;;16.73;;
30874;SDS011;17581;43.222;27.924;2022-11-12T04:24:18;25.05;;;16.52;;
30874;SDS011;17581;43.222;27.924;2022-11-12T04:27:09;32.13;;;18.90;;
30874;SDS011;17581;43.222;27.924;2022-11-12T04:29:45;32.75;;;19.17;;
30874;SDS011;17581;43.222;27.924;2022-11-12T04:32:31;29.25;;;18.58;;
30874;SDS011;17581;43.222;27.924;2022-11-12T04:34:58;33.10;;;19.88;;
30874;SDS011;17581;43.222;27.924;2022-11-12T04:37:25;33.20;;;19.58;;
30874;SDS011;17581;43.222;27.924;2022-11-12T04:39:53;28.98;;;17.73;;
30874;SDS011;17581;43.222;27.924;2022-11-12T04:42:18;31.73;;;18.98;;
30874;SDS011;17581;43.222;27.924;2022-11-12T04:45:08;27.98;;;17.95;;
30874;SDS011;17581;43.222;27.924;2022-11-12T04:47:38;31.33;;;19.80;;
30874;SDS011;17581;43.222;27.924;2022-11-12T04:50:07;33.53;;;21.85;;
30874;SDS011;17581;43.222;27.924;2022-11-12T04:52:37;30.40;;;18.42;;
30874;SDS011;17581;43.222;27.924;2022-11-12T04:55:03;31.63;;;19.48;;
30874;SDS011;17581;43.222;27.924;2022-11-12T04:57:28;36.25;;;21.13;;
30874;SDS011;17581;43.222;27.924;2022-11-12T04:59:54;30.05;;;19.38;;
30874;SDS011;17581;43.222;27.924;2022-11-12T05:02:19;26.70;;;18.45;;
30874;SDS011;17581;43.222;27.924;2022-11-12T05:04:45;34.80;;;20.15;;
30874;SDS011;17581;43.222;27.924;2022-11-12T05:07:10;29.08;;;18.65;;
30874;SDS011;17581;43.222;27.924;2022-11-12T05:09:36;25.38;;;18.33;;
30874;SDS011;17581;43.222;27.924;2022-11-12T05:12:02;29.55;;;18.85;;
30874;SDS011;17581;43.222;27.924;2022-11-12T05:14:28;26.60;;;17.92;;
30874;SDS011;17581;43.222;27.924;2022-11-12T05:16:54;31.60;;;18.92;;
30874;SDS011;17581;43.222;27.924;2022-11-12T05:19:20;30.67;;;20.58;;
30874;SDS011;17581;43.222;27.924;2022-11-12T05:21:45;35.10;;;19.15;;
30874;SDS011;17581;43.222;27.924;2022-11-12T05:24:29;27.90;;;18.92;;
30874;SDS011;17581;43.222;27.924;2022-11-12T05:26:59;29.00;;;18.67;;
30874;SDS011;17581;43.222;27.924;2022-11-12T05:29:24;34.22;;;19.92;;
30874;SDS011;17581;43.222;27.924;2022-11-12T05:31:49;28.52;;;19.40;;
30874;SDS011;17581;43.222;27.924;2022-11-12T05:34:15;30.70;;;19.38;;
30874;SDS011;17581;43.222;27.924;2022-11-12T05:36:40;23.98;;;17.00;;
30874;SDS011;17581;43.222;27.924;2022-11-12T05:39:06;29.35;;;18.38;;
30874;SDS011;17581;43.222;27.924;2022-11-12T05:41:31;28.30;;;17.63;;
30874;SDS011;17581;43.222;27.924;2022-11-12T05:43:57;19.98;;;15.48;;
30874;SDS011;17581;43.222;27.924;2022-11-12T05:46:22;26.45;;;15.65;;
30874;SDS011;17581;43.222;27.924;2022-11-12T05:48:48;27.50;;;16.85;;
30874;SDS011;17581;43.222;27.924;2022-11-12T05:51:13;18.85;;;14.02;;
30874;SDS011;17581;43.222;27.924;2022-11-12T05:53:39;21.08;;;14.75;;
30874;SDS011;17581;43.222;27.924;2022-11-12T05:56:06;29.58;;;14.32;;
30874;SDS011;17581;43.222;27.924;2022-11-12T05:58:33;22.00;;;13.90;;
30874;SDS011;17581;43.222;27.924;2022-11-12T06:01:00;35.35;;;21.05;;
30874;SDS011;17581;43.222;27.924;2022-11-12T06:03:26;22.08;;;15.13;;
30874;SDS011;17581;43.222;27.924;2022-11-12T06:05:52;20.55;;;13.88;;
30874;SDS011;17581;43.222;27.924;2022-11-12T06:08:17;28.30;;;14.10;;
30874;SDS011;17581;43.222;27.924;2022-11-12T06:10:52;21.35;;;14.52;;
30874;SDS011;17581;43.222;27.924;2022-11-12T06:13:19;25.73;;;16.60;;
30874;SDS011;17581;43.222;27.924;2022-11-12T06:15:46;19.75;;;14.45;;
30874;SDS011;17581;43.222;27.924;2022-11-12T06:18:11;36.50;;;24.20;;
30874;SDS011;17581;43.222;27.924;2022-11-12T06:20:37;24.83;;;17.23;;
30874;SDS011;17581;43.222;27.924;2022-11-12T06:23:03;23.08;;;15.50;;
30874;SDS011;17581;43.222;27.924;2022-11-12T06:25:28;24.25;;;15.93;;
30874;SDS011;17581;43.222;27.924;2022-11-12T06:27:54;24.58;;;13.40;;
30874;SDS011;17581;43.222;27.924;2022-11-12T06:30:20;27.27;;;16.77;;
30874;SDS011;17581;43.222;27.924;2022-11-12T06:32:45;23.35;;;14.98;;
30874;SDS011;17581;43.222;27.924;2022-11-12T06:35:15;22.75;;;13.45;;
30874;SDS011;17581;43.222;27.924;2022-11-12T06:37:41;22.38;;;13.48;;
30874;SDS011;17581;43.222;27.924;2022-11-12T06:40:09;17.85;;;12.82;;
30874;SDS011;17581;43.222;27.924;2022-11-12T06:42:34;19.05;;;10.85;;
30874;SDS011;17581;43.222;27.924;2022-11-12T06:44:59;25.67;;;11.43;;
30874;SDS011;17581;43.222;27.924;2022-11-12T06:47:25;22.02;;;13.40;;
30874;SDS011;17581;43.222;27.924;2022-11-12T06:49:51;18.50;;;11.52;;
30874;SDS011;17581;43.222;27.924;2022-11-12T06:52:16;18.67;;;13.00;;
30874;SDS011;17581;43.222;27.924;2022-11-12T06:54:42;19.33;;;14.05;;
30874;SDS011;17581;43.222;27.924;2022-11-12T06:57:08;22.63;;;14.70;;
30874;SDS011;17581;43.222;27.924;2022-11-12T06:59:34;24.63;;;15.00;;
30874;SDS011;17581;43.222;27.924;2022-11-12T07:01:59;20.77;;;14.75;;
30874;SDS011;17581;43.222;27.924;2022-11-12T07:04:24;25.75;;;15.85;;
30874;SDS011;17581;43.222;27.924;2022-11-12T07:06:50;22.35;;;15.80;;
30874;SDS011;17581;43.222;27.924;2022-11-12T07:09:15;37.80;;;14.73;;
30874;SDS011;17581;43.222;27.924;2022-11-12T07:11:41;22.20;;;14.77;;
30874;SDS011;17581;43.222;27.924;2022-11-12T07:14:07;22.58;;;15.98;;
30874;SDS011;17581;43.222;27.924;2022-11-12T07:16:32;20.00;;;14.35;;
30874;SDS011;17581;43.222;27.924;2022-11-12T07:18:58;23.33;;;15.02;;
30874;SDS011;17581;43.222;27.924;2022-11-12T07:21:24;23.55;;;16.08;;
30874;SDS011;17581;43.222;27.924;2022-11-12T07:23:50;44.78;;;24.40;;
30874;SDS011;17581;43.222;27.924;2022-11-12T07:26:19;19.58;;;14.15;;
30874;SDS011;17581;43.222;27.924;2022-11-12T07:28:49;15.85;;;12.10;;
30874;SDS011;17581;43.222;27.924;2022-11-12T07:31:16;25.27;;;12.25;;
30874;SDS011;17581;43.222;27.924;2022-11-12T07:33:43;24.05;;;14.18;;
30874;SDS011;17581;43.222;27.924;2022-11-12T07:36:10;19.42;;;13.95;;
30874;SDS011;17581;43.222;27.924;2022-11-12T07:38:38;17.40;;;12.82;;
30874;SDS011;17581;43.222;27.924;2022-11-12T07:43:32;22.65;;;15.52;;
30874;SDS011;17581;43.222;27.924;2022-11-12T07:45:59;23.65;;;16.50;;
30874;SDS011;17581;43.222;27.924;2022-11-12T07:48:26;41.97;;;27.92;;
30874;SDS011;17581;43.222;27.924;2022-11-12T07:50:58;26.02;;;15.32;;
30874;SDS011;17581;43.222;27.924;2022-11-12T07:53:27;32.42;;;17.40;;
30874;SDS011;17581;43.222;27.924;2022-11-12T07:55:53;28.83;;;15.93;;
30874;SDS011;17581;43.222;27.924;2022-11-12T07:58:20;20.20;;;14.43;;
30874;SDS011;17581;43.222;27.924;2022-11-12T08:00:45;22.60;;;13.63;;
30874;SDS011;17581;43.222;27.924;2022-11-12T08:03:10;17.58;;;12.40;;
30874;SDS011;17581;43.222;27.924;2022-11-12T08:05:36;23.40;;;11.77;;
30874;SDS011;17581;43.222;27.924;2022-11-12T08:08:01;18.63;;;12.38;;
30874;SDS011;17581;43.222;27.924;2022-11-12T08:10:27;20.77;;;12.98;;
30874;SDS011;17581;43.222;27.924;2022-11-12T08:12:54;18.58;;;13.25;;
30874;SDS011;17581;43.222;27.924;2022-11-12T08:15:20;17.65;;;12.70;;
30874;SDS011;17581;43.222;27.924;2022-11-12T08:17:46;21.98;;;13.45;;
30874;SDS011;17581;43.222;27.924;2022-11-12T08:20:11;26.15;;;15.30;;
30874;SDS011;17581;43.222;27.924;2022-11-12T08:22:37;18.88;;;13.20;;
30874;SDS011;17581;43.222;27.924;2022-11-12T08:25:02;23.48;;;13.55;;
30874;SDS011;17581;43.222;27.924;2022-11-12T08:27:28;20.55;;;15.88;;
30874;SDS011;17581;43.222;27.924;2022-11-12T08:29:53;21.52;;;14.40;;
30874;SDS011;17581;43.222;27.924;2022-11-12T08:32:19;36.45;;;21.55;;
30874;SDS011;17581;43.222;27.924;2022-11-12T08:34:44;30.73;;;19.52;;
30874;SDS011;17581;43.222;27.924;2022-11-12T08:37:10;29.30;;;19.30;;
30874;SDS011;17581;43.222;27.924;2022-11-12T08:39:37;23.38;;;14.38;;
30874;SDS011;17581;43.222;27.924;2022-11-12T08:42:02;19.35;;;13.70;;
30874;SDS011;17581;43.222;27.924;2022-11-12T08:44:28;20.85;;;13.75;;
30874;SDS011;17581;43.222;27.924;2022-11-12T08:46:53;17.20;;;11.52;;
30874;SDS011;17581;43.222;27.924;2022-11-12T08:49:19;21.40;;;12.75;;
30874;SDS011;17581;43.222;27.924;2022-11-12T08:51:44;21.00;;;13.30;;
30874;SDS011;17581;43.222;27.924;2022-11-12T08:54:10;21.38;;;13.50;;
30874;SDS011;17581;43.222;27.924;2022-11-12T08:56:35;18.35;;;10.93;;
30874;SDS011;17581;43.222;27.924;2022-11-12T08:59:01;19.25;;;12.52;;
30874;SDS011;17581;43.222;27.924;2022-11-12T09:01:26;17.70;;;11.68;;
30874;SDS011;17581;43.222;27.924;2022-11-12T09:03:51;17.20;;;11.25;;
30874;SDS011;17581;43.222;27.924;2022-11-12T09:06:17;16.63;;;9.57;;
30874;SDS011;17581;43.222;27.924;2022-11-12T09:08:42;21.15;;;12.18;;
30874;SDS011;17581;43.222;27.924;2022-11-12T09:11:08;21.10;;;13.10;;
30874;SDS011;17581;43.222;27.924;2022-11-12T09:13:33;22.83;;;12.90;;
30874;SDS011;17581;43.222;27.924;2022-11-12T09:16:03;23.45;;;11.82;;
30874;SDS011;17581;43.222;27.924;2022-11-12T09:18:30;28.52;;;14.00;;
30874;SDS011;17581;43.222;27.924;2022-11-12T09:21:14;17.95;;;11.95;;
30874;SDS011;17581;43.222;27.924;2022-11-12T09:23:40;15.27;;;11.07;;
30874;SDS011;17581;43.222;27.924;2022-11-12T09:26:05;20.48;;;13.27;;
30874;SDS011;17581;43.222;27.924;2022-11-12T09:28:31;37.33;;;21.60;;
30874;SDS011;17581;43.222;27.924;2022-11-12T09:30:57;14.98;;;11.13;;
30874;SDS011;17581;43.222;27.924;2022-11-12T09:33:23;13.15;;;9.20;;
30874;SDS011;17581;43.222;27.924;2022-11-12T09:35:51;20.20;;;11.52;;
30874;SDS011;17581;43.222;27.924;2022-11-12T09:38:17;13.93;;;8.90;;
30874;SDS011;17581;43.222;27.924;2022-11-12T09:45:49;13.57;;;8.40;;
30874;SDS011;17581;43.222;27.924;2022-11-12T09:48:22;15.35;;;9.98;;
30874;SDS011;17581;43.222;27.924;2022-11-12T09:51:03;16.77;;;9.65;;
30874;SDS011;17581;43.222;27.924;2022-11-12T09:53:58;22.85;;;9.18;;
30874;SDS011;17581;43.222;27.924;2022-11-12T09:56:28;15.98;;;8.98;;
30874;SDS011;17581;43.222;27.924;2022-11-12T09:58:54;18.70;;;9.75;;
30874;SDS011;17581;43.222;27.924;2022-11-12T10:07:25;23.08;;;9.10;;
30874;SDS011;17581;43.222;27.924;2022-11-12T10:10:10;24.92;;;12.13;;
30874;SDS011;17581;43.222;27.924;2022-11-12T10:18:46;26.58;;;13.30;;
30874;SDS011;17581;43.222;27.924;2022-11-12T10:21:29;29.05;;;18.02;;
30874;SDS011;17581;43.222;27.924;2022-11-12T10:23:58;15.82;;;11.57;;
30874;SDS011;17581;43.222;27.924;2022-11-12T10:26:25;27.35;;;12.85;;
30874;SDS011;17581;43.222;27.924;2022-11-12T10:31:53;35.22;;;18.65;;
30874;SDS011;17581;43.222;27.924;2022-11-12T10:34:19;32.05;;;15.93;;
30874;SDS011;17581;43.222;27.924;2022-11-12T10:37:09;25.67;;;13.88;;
30874;SDS011;17581;43.222;27.924;2022-11-12T10:39:38;17.67;;;10.55;;
30874;SDS011;17581;43.222;27.924;2022-11-12T10:44:33;16.67;;;9.68;;
30874;SDS011;17581;43.222;27.924;2022-11-12T10:50:02;20.15;;;11.50;;
30874;SDS011;17581;43.222;27.924;2022-11-12T10:52:35;18.30;;;11.43;;
30874;SDS011;17581;43.222;27.924;2022-11-12T10:57:29;18.92;;;9.45;;
30874;SDS011;17581;43.222;27.924;2022-11-12T11:02:51;25.55;;;14.73;;
30874;SDS011;17581;43.222;27.924;2022-11-12T11:08:12;18.08;;;11.52;;
30874;SDS011;17581;43.222;27.924;2022-11-12T11:10:37;38.33;;;14.70;;
30874;SDS011;17581;43.222;27.924;2022-11-12T11:18:26;21.33;;;13.40;;
30874;SDS011;17581;43.222;27.924;2022-11-12T11:23:48;31.30;;;15.23;;
30874;SDS011;17581;43.222;27.924;2022-11-12T11:26:28;37.97;;;13.90;;
30874;SDS011;17581;43.222;27.924;2022-11-12T11:29:12;21.48;;;14.07;;
30874;SDS011;17581;43.222;27.924;2022-11-12T11:31:50;34.63;;;18.13;;
30874;SDS011;17581;43.222;27.924;2022-11-12T11:37:14;26.92;;;14.73;;
30874;SDS011;17581;43.222;27.924;2022-11-12T11:39:51;35.22;;;17.42;;
30874;SDS011;17581;43.222;27.924;2022-11-12T11:47:56;21.55;;;14.50;;
30874;SDS011;17581;43.222;27.924;2022-11-12T11:50:33;26.67;;;13.57;;
30874;SDS011;17581;43.222;27.924;2022-11-12T11:58:58;24.58;;;14.60;;
30874;SDS011;17581;43.222;27.924;2022-11-12T12:04:47;24.90;;;14.57;;
30874;SDS011;17581;43.222;27.924;2022-11-12T12:09:59;23.52;;;15.07;;
30874;SDS011;17581;43.222;27.924;2022-11-12T12:21:17;36.00;;;17.05;;
30874;SDS011;17581;43.222;27.924;2022-11-12T12:26:16;24.75;;;14.15;;
30874;SDS011;17581;43.222;27.924;2022-11-12T12:28:52;32.38;;;16.25;;
30874;SDS011;17581;43.222;27.924;2022-11-12T12:31:24;28.42;;;16.38;;
30874;SDS011;17581;43.222;27.924;2022-11-12T12:33:59;28.08;;;16.45;;
30874;SDS011;17581;43.222;27.924;2022-11-12T12:36:35;31.05;;;17.23;;
30874;SDS011;17581;43.222;27.924;2022-11-12T12:39:08;27.35;;;15.63;;
30874;SDS011;17581;43.222;27.924;2022-11-12T12:41:41;21.02;;;14.57;;
30874;SDS011;17581;43.222;27.924;2022-11-12T12:44:08;28.30;;;17.08;;
30874;SDS011;17581;43.222;27.924;2022-11-12T12:46:39;34.20;;;15.68;;
30874;SDS011;17581;43.222;27.924;2022-11-12T12:49:10;31.75;;;18.40;;
30874;SDS011;17581;43.222;27.924;2022-11-12T12:51:39;30.20;;;18.50;;
30874;SDS011;17581;43.222;27.924;2022-11-12T12:54:29;26.65;;;16.58;;
30874;SDS011;17581;43.222;27.924;2022-11-12T12:56:59;33.97;;;15.75;;
30874;SDS011;17581;43.222;27.924;2022-11-12T12:59:26;31.08;;;16.90;;
30874;SDS011;17581;43.222;27.924;2022-11-12T13:01:58;25.90;;;16.05;;
30874;SDS011;17581;43.222;27.924;2022-11-12T13:07:37;25.42;;;15.40;;
30874;SDS011;17581;43.222;27.924;2022-11-12T13:15:44;28.45;;;15.80;;
30874;SDS011;17581;43.222;27.924;2022-11-12T13:18:24;25.92;;;16.98;;
30874;SDS011;17581;43.222;27.924;2022-11-12T13:21:15;28.20;;;16.95;;
30874;SDS011;17581;43.222;27.924;2022-11-12T13:23:52;28.38;;;17.50;;
30874;SDS011;17581;43.222;27.924;2022-11-12T13:43:30;32.63;;;18.80;;
30874;SDS011;17581;43.222;27.924;2022-11-12T13:51:12;23.95;;;15.27;;
30874;SDS011;17581;43.222;27.924;2022-11-12T13:53:44;22.60;;;16.08;;
30874;SDS011;17581;43.222;27.924;2022-11-12T13:56:14;32.92;;;20.48;;
30874;SDS011;17581;43.222;27.924;2022-11-12T13:58:51;30.02;;;15.70;;
30874;SDS011;17581;43.222;27.924;2022-11-12T14:01:18;26.42;;;15.70;;
30874;SDS011;17581;43.222;27.924;2022-11-12T14:03:47;25.77;;;15.40;;
30874;SDS011;17581;43.222;27.924;2022-11-12T14:06:23;29.33;;;17.23;;
30874;SDS011;17581;43.222;27.924;2022-11-12T14:17:49;28.13;;;16.08;;
30874;SDS011;17581;43.222;27.924;2022-11-12T14:20:33;32.85;;;17.98;;
30874;SDS011;17581;43.222;27.924;2022-11-12T14:25:56;26.98;;;15.05;;
30874;SDS011;17581;43.222;27.924;2022-11-12T14:28:23;32.45;;;16.85;;
30874;SDS011;17581;43.222;27.924;2022-11-12T14:30:57;28.30;;;16.08;;
30874;SDS011;17581;43.222;27.924;2022-11-12T14:33:24;28.73;;;16.65;;
30874;SDS011;17581;43.222;27.924;2022-11-12T14:35:51;30.98;;;15.65;;
30874;SDS011;17581;43.222;27.924;2022-11-12T14:38:31;34.97;;;17.13;;
30874;SDS011;17581;43.222;27.924;2022-11-12T14:41:08;32.42;;;15.43;;
30874;SDS011;17581;43.222;27.924;2022-11-12T14:43:42;29.02;;;15.77;;
30874;SDS011;17581;43.222;27.924;2022-11-12T14:46:28;28.88;;;15.35;;
30874;SDS011;17581;43.222;27.924;2022-11-12T14:49:27;34.53;;;16.55;;
30874;SDS011;17581;43.222;27.924;2022-11-12T14:54:30;31.00;;;15.68;;
30874;SDS011;17581;43.222;27.924;2022-11-12T14:56:59;45.40;;;17.10;;
30874;SDS011;17581;43.222;27.924;2022-11-12T14:59:27;30.27;;;16.58;;
30874;SDS011;17581;43.222;27.924;2022-11-12T15:02:07;25.63;;;16.30;;
30874;SDS011;17581;43.222;27.924;2022-11-12T15:04:41;30.38;;;16.70;;
30874;SDS011;17581;43.222;27.924;2022-11-12T15:07:28;33.55;;;20.60;;
30874;SDS011;17581;43.222;27.924;2022-11-12T15:09:56;37.92;;;17.48;;
30874;SDS011;17581;43.222;27.924;2022-11-12T15:12:23;33.20;;;16.63;;
30874;SDS011;17581;43.222;27.924;2022-11-12T15:14:52;25.88;;;16.67;;
30874;SDS011;17581;43.222;27.924;2022-11-12T15:19:59;26.45;;;15.50;;
30874;SDS011;17581;43.222;27.924;2022-11-12T15:22:30;29.08;;;17.45;;
30874;SDS011;17581;43.222;27.924;2022-11-12T15:25:08;27.20;;;17.45;;
30874;SDS011;17581;43.222;27.924;2022-11-12T15:31:16;36.25;;;16.75;;
30874;SDS011;17581;43.222;27.924;2022-11-12T15:33:44;31.15;;;15.90;;
30874;SDS011;17581;43.222;27.924;2022-11-12T15:36:13;30.08;;;18.23;;
30874;SDS011;17581;43.222;27.924;2022-11-12T15:38:45;38.72;;;19.35;;
30874;SDS011;17581;43.222;27.924;2022-11-12T15:41:26;26.25;;;16.60;;
30874;SDS011;17581;43.222;27.924;2022-11-12T15:43:53;35.10;;;19.77;;
30874;SDS011;17581;43.222;27.924;2022-11-12T15:46:19;35.05;;;18.75;;
30874;SDS011;17581;43.222;27.924;2022-11-12T15:48:45;50.83;;;27.70;;
30874;SDS011;17581;43.222;27.924;2022-11-12T15:51:11;40.60;;;18.67;;
30874;SDS011;17581;43.222;27.924;2022-11-12T15:53:40;29.95;;;18.45;;
30874;SDS011;17581;43.222;27.924;2022-11-12T15:56:07;35.00;;;19.30;;
30874;SDS011;17581;43.222;27.924;2022-11-12T15:58:37;34.45;;;19.15;;
30874;SDS011;17581;43.222;27.924;2022-11-12T16:01:04;26.55;;;17.33;;
30874;SDS011;17581;43.222;27.924;2022-11-12T16:03:30;40.15;;;23.33;;
30874;SDS011;17581;43.222;27.924;2022-11-12T16:05:55;28.08;;;17.92;;
30874;SDS011;17581;43.222;27.924;2022-11-12T16:08:21;32.53;;;18.10;;
30874;SDS011;17581;43.222;27.924;2022-11-12T16:10:46;34.25;;;18.58;;
30874;SDS011;17581;43.222;27.924;2022-11-12T16:13:14;34.13;;;17.55;;
30874;SDS011;17581;43.222;27.924;2022-11-12T16:15:50;29.30;;;18.10;;
30874;SDS011;17581;43.222;27.924;2022-11-12T16:18:16;39.60;;;18.13;;
30874;SDS011;17581;43.222;27.924;2022-11-12T16:20:41;28.48;;;18.92;;
30874;SDS011;17581;43.222;27.924;2022-11-12T16:23:07;32.63;;;18.40;;
30874;SDS011;17581;43.222;27.924;2022-11-12T16:25:33;29.70;;;18.15;;
30874;SDS011;17581;43.222;27.924;2022-11-12T16:28:00;28.10;;;17.65;;